CheckWX is a tool to help pilots better visualize weather data.  It is not intended as a substitute for an official pre-flight weather briefing.

06:21:00 UTC

KJGG METAR
Williamsburg-Jamestown Airport
Williamsburg, Virginia, USA
Current

26 mins ago

KJGG 230555Z AUTO 00000KT 10SM CLR 13/12 A3010 RMK AO1
Observed
Apr-23 @ 05:55 UTC
Visibility
10 SM
Flight Rules
VFR
Cloud Levels
  • Clear skies
Temperature
13°C / 55°F
Dewpoint
12°C / 54°F
Humidity
94%
Altimeter
30.1" Hg
Pressure
1019.32 hPa
Previous

46 mins ago

KJGG 230535Z AUTO 00000KT 10SM CLR 13/12 A3011 RMK AO1
Observed
Apr-23 @ 05:35 UTC
Visibility
10 SM
Flight Rules
VFR
Cloud Levels
  • Clear skies
Temperature
13°C / 55°F
Dewpoint
12°C / 54°F
Humidity
94%
Altimeter
30.11" Hg
Pressure
1019.62 hPa
Previous

1 hour ago

KJGG 230515Z AUTO 00000KT 10SM CLR 13/11 A3011 RMK AO1
Observed
Apr-23 @ 05:15 UTC
Visibility
10 SM
Flight Rules
VFR
Cloud Levels
  • Clear skies
Temperature
13°C / 55°F
Dewpoint
11°C / 52°F
Humidity
88%
Altimeter
30.11" Hg
Pressure
1019.62 hPa